sensor_id;sensor_type;location;lat;lon;timestamp;P1;durP1;ratioP1;P2;durP2;ratioP2
1685;SDS011;840;47.980;7.830;2023-11-21T00:02:05;2.60;;;1.20;;
1685;SDS011;840;47.980;7.830;2023-11-21T00:04:32;5.83;;;1.80;;
1685;SDS011;840;47.980;7.830;2023-11-21T00:07:00;14.13;;;3.10;;
1685;SDS011;840;47.980;7.830;2023-11-21T00:09:26;7.73;;;3.53;;
1685;SDS011;840;47.980;7.830;2023-11-21T00:11:53;4.67;;;1.70;;
1685;SDS011;840;47.980;7.830;2023-11-21T00:14:20;4.83;;;1.43;;
1685;SDS011;840;47.980;7.830;2023-11-21T00:16:47;3.60;;;2.10;;
1685;SDS011;840;47.980;7.830;2023-11-21T00:19:13;3.47;;;1.23;;
1685;SDS011;840;47.980;7.830;2023-11-21T00:21:41;4.63;;;1.83;;
1685;SDS011;840;47.980;7.830;2023-11-21T00:24:11;8.13;;;2.37;;
1685;SDS011;840;47.980;7.830;2023-11-21T00:26:38;8.03;;;1.83;;
1685;SDS011;840;47.980;7.830;2023-11-21T00:29:05;8.73;;;1.50;;
1685;SDS011;840;47.980;7.830;2023-11-21T00:31:33;2.37;;;1.17;;
1685;SDS011;840;47.980;7.830;2023-11-21T00:34:01;5.77;;;1.63;;
1685;SDS011;840;47.980;7.830;2023-11-21T00:36:28;3.67;;;1.30;;
1685;SDS011;840;47.980;7.830;2023-11-21T00:38:55;6.90;;;1.63;;
1685;SDS011;840;47.980;7.830;2023-11-21T00:41:23;2.53;;;1.10;;
1685;SDS011;840;47.980;7.830;2023-11-21T00:43:52;1.77;;;1.20;;
1685;SDS011;840;47.980;7.830;2023-11-21T00:46:19;1.63;;;1.50;;
1685;SDS011;840;47.980;7.830;2023-11-21T00:48:46;1.43;;;1.33;;
1685;SDS011;840;47.980;7.830;2023-11-21T00:51:12;7.13;;;1.57;;
1685;SDS011;840;47.980;7.830;2023-11-21T00:53:39;3.30;;;1.23;;
1685;SDS011;840;47.980;7.830;2023-11-21T00:56:06;5.83;;;1.20;;
1685;SDS011;840;47.980;7.830;2023-11-21T00:58:34;2.17;;;1.03;;
1685;SDS011;840;47.980;7.830;2023-11-21T01:01:01;3.67;;;1.20;;
1685;SDS011;840;47.980;7.830;2023-11-21T01:03:28;1.23;;;0.80;;
1685;SDS011;840;47.980;7.830;2023-11-21T01:05:55;3.73;;;0.83;;
1685;SDS011;840;47.980;7.830;2023-11-21T01:08:22;1.60;;;0.80;;
1685;SDS011;840;47.980;7.830;2023-11-21T01:10:49;2.50;;;1.07;;
1685;SDS011;840;47.980;7.830;2023-11-21T01:13:16;3.37;;;1.03;;
1685;SDS011;840;47.980;7.830;2023-11-21T01:15:45;5.60;;;1.00;;
1685;SDS011;840;47.980;7.830;2023-11-21T01:18:11;2.10;;;0.70;;
1685;SDS011;840;47.980;7.830;2023-11-21T01:20:38;5.70;;;1.13;;
1685;SDS011;840;47.980;7.830;2023-11-21T01:23:05;2.27;;;1.13;;
1685;SDS011;840;47.980;7.830;2023-11-21T01:25:31;3.60;;;0.93;;
1685;SDS011;840;47.980;7.830;2023-11-21T01:27:58;4.80;;;0.90;;
1685;SDS011;840;47.980;7.830;2023-11-21T01:30:25;3.43;;;1.20;;
1685;SDS011;840;47.980;7.830;2023-11-21T01:32:53;1.87;;;0.73;;
1685;SDS011;840;47.980;7.830;2023-11-21T01:35:19;0.70;;;0.70;;
1685;SDS011;840;47.980;7.830;2023-11-21T01:37:46;1.30;;;0.63;;
1685;SDS011;840;47.980;7.830;2023-11-21T01:40:13;1.80;;;0.90;;
1685;SDS011;840;47.980;7.830;2023-11-21T01:42:40;1.67;;;1.03;;
1685;SDS011;840;47.980;7.830;2023-11-21T01:45:08;0.70;;;0.70;;
1685;SDS011;840;47.980;7.830;2023-11-21T01:47:37;2.10;;;0.57;;
1685;SDS011;840;47.980;7.830;2023-11-21T01:50:07;2.30;;;0.73;;
1685;SDS011;840;47.980;7.830;2023-11-21T01:52:37;3.03;;;1.00;;
1685;SDS011;840;47.980;7.830;2023-11-21T01:55:06;1.27;;;1.00;;
1685;SDS011;840;47.980;7.830;2023-11-21T01:57:34;1.40;;;0.70;;
1685;SDS011;840;47.980;7.830;2023-11-21T02:00:04;2.70;;;1.20;;
1685;SDS011;840;47.980;7.830;2023-11-21T02:02:40;2.03;;;0.90;;
1685;SDS011;840;47.980;7.830;2023-11-21T02:05:10;1.90;;;0.70;;
1685;SDS011;840;47.980;7.830;2023-11-21T02:07:38;1.53;;;0.80;;
1685;SDS011;840;47.980;7.830;2023-11-21T02:10:05;1.67;;;0.70;;
1685;SDS011;840;47.980;7.830;2023-11-21T02:12:33;1.53;;;0.70;;
1685;SDS011;840;47.980;7.830;2023-11-21T02:15:00;2.63;;;1.00;;
1685;SDS011;840;47.980;7.830;2023-11-21T02:17:27;2.13;;;0.80;;
1685;SDS011;840;47.980;7.830;2023-11-21T02:19:55;1.53;;;0.67;;
1685;SDS011;840;47.980;7.830;2023-11-21T02:22:23;2.00;;;0.63;;
1685;SDS011;840;47.980;7.830;2023-11-21T02:24:53;1.27;;;0.80;;
1685;SDS011;840;47.980;7.830;2023-11-21T02:27:20;1.57;;;1.20;;
1685;SDS011;840;47.980;7.830;2023-11-21T02:29:48;1.70;;;0.77;;
1685;SDS011;840;47.980;7.830;2023-11-21T02:32:15;1.07;;;0.80;;
1685;SDS011;840;47.980;7.830;2023-11-21T02:34:44;4.97;;;1.03;;
1685;SDS011;840;47.980;7.830;2023-11-21T02:37:11;2.27;;;0.90;;
1685;SDS011;840;47.980;7.830;2023-11-21T02:39:37;4.63;;;1.07;;
1685;SDS011;840;47.980;7.830;2023-11-21T02:42:06;1.17;;;0.77;;
1685;SDS011;840;47.980;7.830;2023-11-21T02:44:32;2.17;;;0.90;;
1685;SDS011;840;47.980;7.830;2023-11-21T02:46:59;0.70;;;0.60;;
1685;SDS011;840;47.980;7.830;2023-11-21T02:49:26;0.80;;;0.77;;
1685;SDS011;840;47.980;7.830;2023-11-21T02:51:53;1.80;;;0.70;;
1685;SDS011;840;47.980;7.830;2023-11-21T02:54:20;3.33;;;1.00;;
1685;SDS011;840;47.980;7.830;2023-11-21T02:56:48;0.70;;;0.70;;
1685;SDS011;840;47.980;7.830;2023-11-21T02:59:16;2.13;;;0.70;;
1685;SDS011;840;47.980;7.830;2023-11-21T03:01:44;5.43;;;1.13;;
1685;SDS011;840;47.980;7.830;2023-11-21T03:04:11;1.50;;;0.93;;
1685;SDS011;840;47.980;7.830;2023-11-21T03:06:42;2.10;;;0.90;;
1685;SDS011;840;47.980;7.830;2023-11-21T03:09:10;1.10;;;0.80;;
1685;SDS011;840;47.980;7.830;2023-11-21T03:11:38;2.23;;;0.80;;
1685;SDS011;840;47.980;7.830;2023-11-21T03:14:04;2.87;;;0.60;;
1685;SDS011;840;47.980;7.830;2023-11-21T03:16:32;1.47;;;0.47;;
1685;SDS011;840;47.980;7.830;2023-11-21T03:18:59;1.50;;;0.70;;
1685;SDS011;840;47.980;7.830;2023-11-21T03:21:26;1.73;;;0.87;;
1685;SDS011;840;47.980;7.830;2023-11-21T03:23:54;1.70;;;1.00;;
1685;SDS011;840;47.980;7.830;2023-11-21T03:26:21;5.03;;;0.70;;
1685;SDS011;840;47.980;7.830;2023-11-21T03:28:47;2.23;;;0.90;;
1685;SDS011;840;47.980;7.830;2023-11-21T03:31:15;2.60;;;1.00;;
1685;SDS011;840;47.980;7.830;2023-11-21T03:33:43;2.33;;;0.90;;
1685;SDS011;840;47.980;7.830;2023-11-21T03:36:10;1.90;;;0.83;;
1685;SDS011;840;47.980;7.830;2023-11-21T03:38:37;2.77;;;1.17;;
1685;SDS011;840;47.980;7.830;2023-11-21T03:41:04;2.17;;;0.80;;
1685;SDS011;840;47.980;7.830;2023-11-21T03:43:31;3.33;;;0.90;;
1685;SDS011;840;47.980;7.830;2023-11-21T03:45:58;3.30;;;0.80;;
1685;SDS011;840;47.980;7.830;2023-11-21T03:48:25;4.60;;;1.03;;
1685;SDS011;840;47.980;7.830;2023-11-21T03:50:53;1.03;;;0.80;;
1685;SDS011;840;47.980;7.830;2023-11-21T03:53:20;2.20;;;0.80;;
1685;SDS011;840;47.980;7.830;2023-11-21T03:55:46;2.20;;;0.80;;
1685;SDS011;840;47.980;7.830;2023-11-21T03:58:14;1.30;;;0.87;;
1685;SDS011;840;47.980;7.830;2023-11-21T04:00:41;4.10;;;1.03;;
1685;SDS011;840;47.980;7.830;2023-11-21T04:03:07;1.33;;;1.23;;
1685;SDS011;840;47.980;7.830;2023-11-21T04:05:34;1.13;;;0.80;;
1685;SDS011;840;47.980;7.830;2023-11-21T04:08:02;4.90;;;1.20;;
1685;SDS011;840;47.980;7.830;2023-11-21T04:10:29;1.13;;;1.03;;
1685;SDS011;840;47.980;7.830;2023-11-21T04:12:56;0.87;;;0.77;;
1685;SDS011;840;47.980;7.830;2023-11-21T04:15:23;1.87;;;0.80;;
1685;SDS011;840;47.980;7.830;2023-11-21T04:17:49;2.10;;;0.70;;
1685;SDS011;840;47.980;7.830;2023-11-21T04:20:16;0.70;;;0.70;;
1685;SDS011;840;47.980;7.830;2023-11-21T04:22:43;3.00;;;0.80;;
1685;SDS011;840;47.980;7.830;2023-11-21T04:25:12;1.13;;;0.60;;
1685;SDS011;840;47.980;7.830;2023-11-21T04:27:40;1.40;;;0.83;;
1685;SDS011;840;47.980;7.830;2023-11-21T04:30:09;1.40;;;0.73;;
1685;SDS011;840;47.980;7.830;2023-11-21T04:32:36;2.40;;;0.80;;
1685;SDS011;840;47.980;7.830;2023-11-21T04:35:04;0.80;;;0.63;;
1685;SDS011;840;47.980;7.830;2023-11-21T04:37:31;1.83;;;0.70;;
1685;SDS011;840;47.980;7.830;2023-11-21T04:39:58;2.83;;;0.80;;
1685;SDS011;840;47.980;7.830;2023-11-21T04:42:27;1.07;;;0.73;;
1685;SDS011;840;47.980;7.830;2023-11-21T04:44:54;1.30;;;0.60;;
1685;SDS011;840;47.980;7.830;2023-11-21T04:47:20;1.10;;;0.80;;
1685;SDS011;840;47.980;7.830;2023-11-21T04:49:47;1.53;;;0.70;;
1685;SDS011;840;47.980;7.830;2023-11-21T04:52:14;1.00;;;0.90;;
1685;SDS011;840;47.980;7.830;2023-11-21T04:54:40;1.03;;;0.50;;
1685;SDS011;840;47.980;7.830;2023-11-21T04:57:07;2.43;;;0.80;;
1685;SDS011;840;47.980;7.830;2023-11-21T04:59:36;1.90;;;0.87;;
1685;SDS011;840;47.980;7.830;2023-11-21T05:02:03;2.80;;;0.90;;
1685;SDS011;840;47.980;7.830;2023-11-21T05:04:30;1.13;;;0.77;;
1685;SDS011;840;47.980;7.830;2023-11-21T05:06:57;2.97;;;1.03;;
1685;SDS011;840;47.980;7.830;2023-11-21T05:09:23;2.00;;;1.00;;
1685;SDS011;840;47.980;7.830;2023-11-21T05:11:50;1.17;;;0.80;;
1685;SDS011;840;47.980;7.830;2023-11-21T05:14:18;1.17;;;0.60;;
1685;SDS011;840;47.980;7.830;2023-11-21T05:16:46;3.83;;;0.73;;
1685;SDS011;840;47.980;7.830;2023-11-21T05:19:14;1.50;;;0.70;;
1685;SDS011;840;47.980;7.830;2023-11-21T05:21:41;0.70;;;0.70;;
1685;SDS011;840;47.980;7.830;2023-11-21T05:24:08;2.33;;;0.63;;
1685;SDS011;840;47.980;7.830;2023-11-21T05:26:34;1.10;;;0.87;;
1685;SDS011;840;47.980;7.830;2023-11-21T05:29:01;2.43;;;0.83;;
1685;SDS011;840;47.980;7.830;2023-11-21T05:31:28;1.30;;;1.17;;
1685;SDS011;840;47.980;7.830;2023-11-21T05:33:56;1.47;;;1.20;;
1685;SDS011;840;47.980;7.830;2023-11-21T05:36:23;1.13;;;1.13;;
1685;SDS011;840;47.980;7.830;2023-11-21T05:38:50;2.00;;;1.50;;
1685;SDS011;840;47.980;7.830;2023-11-21T05:41:16;1.60;;;1.30;;
1685;SDS011;840;47.980;7.830;2023-11-21T05:43:43;1.10;;;1.00;;
1685;SDS011;840;47.980;7.830;2023-11-21T05:46:10;6.13;;;1.30;;
1685;SDS011;840;47.980;7.830;2023-11-21T05:48:38;1.20;;;1.10;;
1685;SDS011;840;47.980;7.830;2023-11-21T05:51:06;4.20;;;1.20;;
1685;SDS011;840;47.980;7.830;2023-11-21T05:53:33;1.83;;;1.30;;
1685;SDS011;840;47.980;7.830;2023-11-21T05:56:00;2.00;;;1.47;;
1685;SDS011;840;47.980;7.830;2023-11-21T05:58:28;2.10;;;1.40;;
1685;SDS011;840;47.980;7.830;2023-11-21T06:00:55;1.90;;;1.63;;
1685;SDS011;840;47.980;7.830;2023-11-21T06:03:22;1.50;;;1.40;;
1685;SDS011;840;47.980;7.830;2023-11-21T06:05:50;2.10;;;1.30;;
1685;SDS011;840;47.980;7.830;2023-11-21T06:08:18;4.23;;;1.60;;
1685;SDS011;840;47.980;7.830;2023-11-21T06:10:45;1.93;;;1.77;;
1685;SDS011;840;47.980;7.830;2023-11-21T06:13:14;1.90;;;1.80;;
1685;SDS011;840;47.980;7.830;2023-11-21T06:15:41;1.30;;;1.20;;
1685;SDS011;840;47.980;7.830;2023-11-21T06:18:07;1.90;;;1.80;;
1685;SDS011;840;47.980;7.830;2023-11-21T06:20:36;1.70;;;1.60;;
1685;SDS011;840;47.980;7.830;2023-11-21T06:23:03;1.67;;;1.57;;
1685;SDS011;840;47.980;7.830;2023-11-21T06:25:32;2.10;;;1.30;;
1685;SDS011;840;47.980;7.830;2023-11-21T06:28:01;2.50;;;2.30;;
1685;SDS011;840;47.980;7.830;2023-11-21T06:30:28;1.70;;;1.60;;
1685;SDS011;840;47.980;7.830;2023-11-21T06:32:55;4.53;;;2.27;;
1685;SDS011;840;47.980;7.830;2023-11-21T06:35:22;2.97;;;2.13;;
1685;SDS011;840;47.980;7.830;2023-11-21T06:37:49;2.10;;;1.90;;
1685;SDS011;840;47.980;7.830;2023-11-21T06:40:16;2.30;;;2.10;;
1685;SDS011;840;47.980;7.830;2023-11-21T06:42:46;2.10;;;1.30;;
1685;SDS011;840;47.980;7.830;2023-11-21T06:45:12;3.20;;;2.77;;
1685;SDS011;840;47.980;7.830;2023-11-21T06:47:40;6.57;;;2.67;;
1685;SDS011;840;47.980;7.830;2023-11-21T06:50:07;2.70;;;2.50;;
1685;SDS011;840;47.980;7.830;2023-11-21T06:52:34;4.00;;;3.07;;
1685;SDS011;840;47.980;7.830;2023-11-21T06:55:01;2.37;;;2.17;;
1685;SDS011;840;47.980;7.830;2023-11-21T06:57:28;2.30;;;2.10;;
1685;SDS011;840;47.980;7.830;2023-11-21T06:59:56;3.23;;;2.57;;
1685;SDS011;840;47.980;7.830;2023-11-21T07:02:23;2.67;;;2.47;;
1685;SDS011;840;47.980;7.830;2023-11-21T07:04:50;2.93;;;2.43;;
1685;SDS011;840;47.980;7.830;2023-11-21T07:07:17;3.33;;;2.93;;
1685;SDS011;840;47.980;7.830;2023-11-21T07:09:44;4.43;;;2.37;;
1685;SDS011;840;47.980;7.830;2023-11-21T07:12:12;2.80;;;2.60;;
1685;SDS011;840;47.980;7.830;2023-11-21T07:14:39;2.27;;;2.17;;
1685;SDS011;840;47.980;7.830;2023-11-21T07:17:09;2.90;;;2.40;;
1685;SDS011;840;47.980;7.830;2023-11-21T07:19:37;2.70;;;2.40;;
1685;SDS011;840;47.980;7.830;2023-11-21T07:22:03;4.70;;;2.23;;
1685;SDS011;840;47.980;7.830;2023-11-21T07:24:30;2.10;;;2.00;;
1685;SDS011;840;47.980;7.830;2023-11-21T07:26:57;2.00;;;1.87;;
1685;SDS011;840;47.980;7.830;2023-11-21T07:29:24;4.63;;;1.70;;
1685;SDS011;840;47.980;7.830;2023-11-21T07:31:51;2.60;;;1.70;;
1685;SDS011;840;47.980;7.830;2023-11-21T07:34:19;1.70;;;1.60;;
1685;SDS011;840;47.980;7.830;2023-11-21T07:36:47;1.70;;;1.60;;
1685;SDS011;840;47.980;7.830;2023-11-21T07:39:13;3.70;;;1.67;;
1685;SDS011;840;47.980;7.830;2023-11-21T07:41:41;1.73;;;1.63;;
1685;SDS011;840;47.980;7.830;2023-11-21T07:44:13;3.97;;;2.20;;
1685;SDS011;840;47.980;7.830;2023-11-21T07:46:40;1.63;;;1.20;;
1685;SDS011;840;47.980;7.830;2023-11-21T07:49:07;2.30;;;1.00;;
1685;SDS011;840;47.980;7.830;2023-11-21T07:51:35;1.60;;;1.37;;
1685;SDS011;840;47.980;7.830;2023-11-21T07:54:02;9.37;;;1.60;;
1685;SDS011;840;47.980;7.830;2023-11-21T07:56:29;2.40;;;1.80;;
1685;SDS011;840;47.980;7.830;2023-11-21T07:58:55;2.13;;;1.80;;
1685;SDS011;840;47.980;7.830;2023-11-21T08:01:22;1.70;;;1.60;;
1685;SDS011;840;47.980;7.830;2023-11-21T08:03:49;2.40;;;1.90;;
1685;SDS011;840;47.980;7.830;2023-11-21T08:06:17;2.20;;;2.00;;
1685;SDS011;840;47.980;7.830;2023-11-21T08:08:45;1.50;;;1.40;;
1685;SDS011;840;47.980;7.830;2023-11-21T08:11:12;1.50;;;1.40;;
1685;SDS011;840;47.980;7.830;2023-11-21T08:13:39;2.90;;;1.30;;
1685;SDS011;840;47.980;7.830;2023-11-21T08:16:06;3.80;;;1.73;;
1685;SDS011;840;47.980;7.830;2023-11-21T08:18:33;5.40;;;1.67;;
1685;SDS011;840;47.980;7.830;2023-11-21T08:21:00;2.17;;;1.00;;
1685;SDS011;840;47.980;7.830;2023-11-21T08:23:28;0.83;;;0.80;;
1685;SDS011;840;47.980;7.830;2023-11-21T08:25:56;1.90;;;1.23;;
1685;SDS011;840;47.980;7.830;2023-11-21T08:28:23;1.27;;;1.17;;
1685;SDS011;840;47.980;7.830;2023-11-21T08:30:51;0.90;;;0.90;;
1685;SDS011;840;47.980;7.830;2023-11-21T08:33:19;1.70;;;1.30;;
1685;SDS011;840;47.980;7.830;2023-11-21T08:35:46;3.50;;;1.03;;
1685;SDS011;840;47.980;7.830;2023-11-21T08:38:12;0.80;;;0.80;;
1685;SDS011;840;47.980;7.830;2023-11-21T08:40:39;2.27;;;1.10;;
1685;SDS011;840;47.980;7.830;2023-11-21T08:43:07;1.10;;;0.87;;
1685;SDS011;840;47.980;7.830;2023-11-21T08:45:37;1.70;;;0.80;;
1685;SDS011;840;47.980;7.830;2023-11-21T08:48:04;2.93;;;0.97;;
1685;SDS011;840;47.980;7.830;2023-11-21T08:50:31;1.50;;;0.77;;
1685;SDS011;840;47.980;7.830;2023-11-21T08:52:57;1.70;;;1.20;;
1685;SDS011;840;47.980;7.830;2023-11-21T08:55:24;1.47;;;1.10;;
1685;SDS011;840;47.980;7.830;2023-11-21T08:57:51;3.93;;;1.77;;
1685;SDS011;840;47.980;7.830;2023-11-21T09:00:19;1.37;;;1.27;;
1685;SDS011;840;47.980;7.830;2023-11-21T09:02:47;1.60;;;1.40;;
1685;SDS011;840;47.980;7.830;2023-11-21T09:05:14;1.47;;;1.30;;
1685;SDS011;840;47.980;7.830;2023-11-21T09:07:42;1.30;;;1.17;;
1685;SDS011;840;47.980;7.830;2023-11-21T09:10:11;5.73;;;1.60;;
1685;SDS011;840;47.980;7.830;2023-11-21T09:12:37;2.20;;;1.23;;
1685;SDS011;840;47.980;7.830;2023-11-21T09:15:05;1.40;;;1.30;;
1685;SDS011;840;47.980;7.830;2023-11-21T09:17:33;2.03;;;0.80;;
1685;SDS011;840;47.980;7.830;2023-11-21T09:20:00;1.33;;;0.90;;
1685;SDS011;840;47.980;7.830;2023-11-21T09:22:30;1.70;;;1.00;;
1685;SDS011;840;47.980;7.830;2023-11-21T09:24:57;0.70;;;0.70;;
1685;SDS011;840;47.980;7.830;2023-11-21T09:27:23;1.43;;;1.23;;
1685;SDS011;840;47.980;7.830;2023-11-21T09:29:51;2.17;;;1.00;;
1685;SDS011;840;47.980;7.830;2023-11-21T09:32:18;4.13;;;1.23;;
1685;SDS011;840;47.980;7.830;2023-11-21T09:34:47;0.70;;;0.70;;
1685;SDS011;840;47.980;7.830;2023-11-21T09:37:15;2.10;;;1.00;;
1685;SDS011;840;47.980;7.830;2023-11-21T09:39:42;1.53;;;0.93;;
1685;SDS011;840;47.980;7.830;2023-11-21T09:42:10;1.23;;;0.70;;
1685;SDS011;840;47.980;7.830;2023-11-21T09:44:48;0.97;;;0.87;;
1685;SDS011;840;47.980;7.830;2023-11-21T09:47:23;0.77;;;0.70;;
1685;SDS011;840;47.980;7.830;2023-11-21T09:49:52;1.70;;;0.60;;
1685;SDS011;840;47.980;7.830;2023-11-21T09:52:23;0.60;;;0.60;;
1685;SDS011;840;47.980;7.830;2023-11-21T09:54:52;0.87;;;0.60;;
1685;SDS011;840;47.980;7.830;2023-11-21T09:57:22;3.30;;;0.90;;
1685;SDS011;840;47.980;7.830;2023-11-21T09:59:50;2.00;;;1.00;;
1685;SDS011;840;47.980;7.830;2023-11-21T10:02:20;0.80;;;0.80;;
1685;SDS011;840;47.980;7.830;2023-11-21T10:04:52;1.10;;;1.00;;
1685;SDS011;840;47.980;7.830;2023-11-21T10:07:19;1.53;;;1.10;;
1685;SDS011;840;47.980;7.830;2023-11-21T10:09:47;3.63;;;0.80;;
1685;SDS011;840;47.980;7.830;2023-11-21T10:12:14;0.90;;;0.90;;
1685;SDS011;840;47.980;7.830;2023-11-21T10:14:41;2.20;;;0.90;;
1685;SDS011;840;47.980;7.830;2023-11-21T10:17:10;2.23;;;0.63;;
1685;SDS011;840;47.980;7.830;2023-11-21T10:19:38;2.87;;;2.40;;
1685;SDS011;840;47.980;7.830;2023-11-21T10:22:06;6.97;;;3.03;;
1685;SDS011;840;47.980;7.830;2023-11-21T10:24:34;2.70;;;1.90;;
1685;SDS011;840;47.980;7.830;2023-11-21T10:27:01;4.00;;;3.10;;
1685;SDS011;840;47.980;7.830;2023-11-21T10:29:29;2.37;;;1.50;;
1685;SDS011;840;47.980;7.830;2023-11-21T10:31:56;2.53;;;2.03;;
1685;SDS011;840;47.980;7.830;2023-11-21T10:34:24;2.57;;;1.63;;
1685;SDS011;840;47.980;7.830;2023-11-21T10:36:52;1.10;;;1.00;;
1685;SDS011;840;47.980;7.830;2023-11-21T10:39:24;1.33;;;1.20;;
1685;SDS011;840;47.980;7.830;2023-11-21T10:41:55;3.30;;;1.23;;
1685;SDS011;840;47.980;7.830;2023-11-21T10:44:22;1.17;;;1.07;;
1685;SDS011;840;47.980;7.830;2023-11-21T10:46:50;1.10;;;1.10;;
1685;SDS011;840;47.980;7.830;2023-11-21T10:49:21;6.07;;;1.30;;
1685;SDS011;840;47.980;7.830;2023-11-21T10:51:49;2.37;;;1.50;;
1685;SDS011;840;47.980;7.830;2023-11-21T10:54:18;3.00;;;1.07;;
1685;SDS011;840;47.980;7.830;2023-11-21T10:56:48;1.20;;;1.10;;
1685;SDS011;840;47.980;7.830;2023-11-21T10:59:17;1.75;;;1.30;;
1685;SDS011;840;47.980;7.830;2023-11-21T11:01:46;1.90;;;1.70;;
1685;SDS011;840;47.980;7.830;2023-11-21T11:04:14;1.90;;;1.00;;
1685;SDS011;840;47.980;7.830;2023-11-21T11:06:44;3.00;;;1.73;;
1685;SDS011;840;47.980;7.830;2023-11-21T11:09:16;1.70;;;1.60;;
1685;SDS011;840;47.980;7.830;2023-11-21T11:11:44;1.63;;;1.53;;
1685;SDS011;840;47.980;7.830;2023-11-21T11:14:13;1.05;;;1.00;;
1685;SDS011;840;47.980;7.830;2023-11-21T11:16:41;1.93;;;1.73;;
1685;SDS011;840;47.980;7.830;2023-11-21T11:19:08;1.37;;;1.27;;
1685;SDS011;840;47.980;7.830;2023-11-21T11:21:38;1.30;;;1.20;;
1685;SDS011;840;47.980;7.830;2023-11-21T11:24:18;1.40;;;1.30;;
1685;SDS011;840;47.980;7.830;2023-11-21T11:27:01;2.37;;;1.33;;
1685;SDS011;840;47.980;7.830;2023-11-21T11:29:39;1.83;;;1.70;;
1685;SDS011;840;47.980;7.830;2023-11-21T11:32:16;2.50;;;1.97;;
1685;SDS011;840;47.980;7.830;2023-11-21T11:34:53;2.27;;;2.07;;
1685;SDS011;840;47.980;7.830;2023-11-21T11:37:26;4.10;;;1.80;;
1685;SDS011;840;47.980;7.830;2023-11-21T11:39:52;2.73;;;2.37;;
1685;SDS011;840;47.980;7.830;2023-11-21T11:42:21;1.70;;;1.60;;
1685;SDS011;840;47.980;7.830;2023-11-21T11:44:54;2.17;;;1.97;;
1685;SDS011;840;47.980;7.830;2023-11-21T11:47:23;4.40;;;2.50;;
1685;SDS011;840;47.980;7.830;2023-11-21T11:50:05;4.80;;;2.27;;
1685;SDS011;840;47.980;7.830;2023-11-21T11:52:38;2.10;;;2.00;;
1685;SDS011;840;47.980;7.830;2023-11-21T11:55:07;1.80;;;1.70;;
1685;SDS011;840;47.980;7.830;2023-11-21T11:57:36;1.73;;;1.63;;
1685;SDS011;840;47.980;7.830;2023-11-21T12:00:08;5.03;;;1.97;;
1685;SDS011;840;47.980;7.830;2023-11-21T12:02:37;2.40;;;1.90;;
1685;SDS011;840;47.980;7.830;2023-11-21T12:05:09;2.10;;;1.67;;
1685;SDS011;840;47.980;7.830;2023-11-21T12:07:42;2.33;;;2.13;;
1685;SDS011;840;47.980;7.830;2023-11-21T12:10:11;2.00;;;1.87;;
1685;SDS011;840;47.980;7.830;2023-11-21T12:12:41;1.73;;;1.63;;
1685;SDS011;840;47.980;7.830;2023-11-21T12:15:11;3.40;;;2.13;;
1685;SDS011;840;47.980;7.830;2023-11-21T12:17:37;1.67;;;1.57;;
1685;SDS011;840;47.980;7.830;2023-11-21T12:20:05;2.43;;;2.23;;
1685;SDS011;840;47.980;7.830;2023-11-21T12:22:39;2.37;;;2.23;;
1685;SDS011;840;47.980;7.830;2023-11-21T12:25:08;2.20;;;1.60;;
1685;SDS011;840;47.980;7.830;2023-11-21T12:27:34;1.83;;;1.73;;
1685;SDS011;840;47.980;7.830;2023-11-21T12:30:01;1.77;;;1.53;;
1685;SDS011;840;47.980;7.830;2023-11-21T12:32:29;2.03;;;1.83;;
1685;SDS011;840;47.980;7.830;2023-11-21T12:34:56;2.20;;;1.93;;
1685;SDS011;840;47.980;7.830;2023-11-21T12:37:23;2.27;;;2.07;;
1685;SDS011;840;47.980;7.830;2023-11-21T12:39:49;2.40;;;2.20;;
1685;SDS011;840;47.980;7.830;2023-11-21T12:42:18;2.70;;;2.50;;
1685;SDS011;840;47.980;7.830;2023-11-21T12:44:46;2.50;;;2.40;;
1685;SDS011;840;47.980;7.830;2023-11-21T12:47:16;2.63;;;2.43;;
1685;SDS011;840;47.980;7.830;2023-11-21T12:49:44;3.00;;;2.53;;
1685;SDS011;840;47.980;7.830;2023-11-21T12:52:11;2.50;;;2.27;;
1685;SDS011;840;47.980;7.830;2023-11-21T12:54:38;2.70;;;2.50;;
1685;SDS011;840;47.980;7.830;2023-11-21T12:57:05;3.30;;;3.00;;
1685;SDS011;840;47.980;7.830;2023-11-21T12:59:33;3.53;;;3.20;;
1685;SDS011;840;47.980;7.830;2023-11-21T13:02:00;2.77;;;2.40;;
1685;SDS011;840;47.980;7.830;2023-11-21T13:04:30;2.80;;;2.60;;
1685;SDS011;840;47.980;7.830;2023-11-21T13:07:04;2.90;;;2.70;;
1685;SDS011;840;47.980;7.830;2023-11-21T13:09:38;7.47;;;3.20;;
1685;SDS011;840;47.980;7.830;2023-11-21T13:12:05;3.87;;;2.80;;
1685;SDS011;840;47.980;7.830;2023-11-21T13:14:34;3.37;;;2.70;;
1685;SDS011;840;47.980;7.830;2023-11-21T13:17:01;3.23;;;3.03;;
1685;SDS011;840;47.980;7.830;2023-11-21T13:19:29;3.10;;;2.70;;
1685;SDS011;840;47.980;7.830;2023-11-21T13:21:56;1.60;;;1.50;;
1685;SDS011;840;47.980;7.830;2023-11-21T13:24:25;3.20;;;1.83;;
1685;SDS011;840;47.980;7.830;2023-11-21T13:26:51;2.97;;;2.77;;
1685;SDS011;840;47.980;7.830;2023-11-21T13:29:19;2.63;;;2.20;;
1685;SDS011;840;47.980;7.830;2023-11-21T13:31:46;2.73;;;2.53;;
1685;SDS011;840;47.980;7.830;2023-11-21T13:34:15;2.10;;;2.00;;
1685;SDS011;840;47.980;7.830;2023-11-21T13:36:44;2.03;;;1.93;;
1685;SDS011;840;47.980;7.830;2023-11-21T13:39:11;2.00;;;1.90;;
1685;SDS011;840;47.980;7.830;2023-11-21T13:41:42;3.20;;;1.93;;
1685;SDS011;840;47.980;7.830;2023-11-21T13:44:08;3.00;;;2.13;;
1685;SDS011;840;47.980;7.830;2023-11-21T13:46:41;2.53;;;2.33;;
1685;SDS011;840;47.980;7.830;2023-11-21T13:49:08;2.43;;;2.23;;
1685;SDS011;840;47.980;7.830;2023-11-21T13:51:35;2.60;;;2.40;;
1685;SDS011;840;47.980;7.830;2023-11-21T13:54:05;2.33;;;2.13;;
1685;SDS011;840;47.980;7.830;2023-11-21T13:56:34;2.73;;;2.10;;
1685;SDS011;840;47.980;7.830;2023-11-21T13:59:03;2.60;;;2.00;;
1685;SDS011;840;47.980;7.830;2023-11-21T14:01:38;6.43;;;2.70;;
1685;SDS011;840;47.980;7.830;2023-11-21T14:04:19;2.50;;;2.30;;
1685;SDS011;840;47.980;7.830;2023-11-21T14:07:00;2.90;;;2.70;;
1685;SDS011;840;47.980;7.830;2023-11-21T14:09:42;2.60;;;2.40;;
1685;SDS011;840;47.980;7.830;2023-11-21T14:12:09;2.10;;;1.90;;
1685;SDS011;840;47.980;7.830;2023-11-21T14:14:39;2.57;;;2.37;;
1685;SDS011;840;47.980;7.830;2023-11-21T14:17:06;2.87;;;2.67;;
1685;SDS011;840;47.980;7.830;2023-11-21T14:19:34;4.03;;;2.50;;
1685;SDS011;840;47.980;7.830;2023-11-21T14:22:04;3.00;;;2.50;;
1685;SDS011;840;47.980;7.830;2023-11-21T14:24:30;3.10;;;2.90;;
1685;SDS011;840;47.980;7.830;2023-11-21T14:26:58;7.50;;;3.57;;
1685;SDS011;840;47.980;7.830;2023-11-21T14:29:24;5.93;;;3.90;;
1685;SDS011;840;47.980;7.830;2023-11-21T14:31:54;3.70;;;3.40;;
1685;SDS011;840;47.980;7.830;2023-11-21T14:34:22;3.80;;;3.50;;
1685;SDS011;840;47.980;7.830;2023-11-21T14:36:49;4.30;;;4.07;;
1685;SDS011;840;47.980;7.830;2023-11-21T14:39:16;2.90;;;2.70;;
1685;SDS011;840;47.980;7.830;2023-11-21T14:41:48;4.10;;;3.80;;
1685;SDS011;840;47.980;7.830;2023-11-21T14:44:15;3.67;;;3.37;;
1685;SDS011;840;47.980;7.830;2023-11-21T14:46:42;3.00;;;2.80;;
1685;SDS011;840;47.980;7.830;2023-11-21T14:49:12;3.00;;;2.70;;
1685;SDS011;840;47.980;7.830;2023-11-21T14:51:45;4.43;;;3.50;;
1685;SDS011;840;47.980;7.830;2023-11-21T14:54:25;3.80;;;3.40;;
1685;SDS011;840;47.980;7.830;2023-11-21T14:57:05;3.13;;;2.93;;
1685;SDS011;840;47.980;7.830;2023-11-21T14:59:34;3.03;;;2.83;;
1685;SDS011;840;47.980;7.830;2023-11-21T15:02:01;3.70;;;3.20;;
1685;SDS011;840;47.980;7.830;2023-11-21T15:04:40;8.80;;;3.10;;
1685;SDS011;840;47.980;7.830;2023-11-21T15:07:08;4.43;;;3.27;;
1685;SDS011;840;47.980;7.830;2023-11-21T15:09:36;3.80;;;3.40;;
1685;SDS011;840;47.980;7.830;2023-11-21T15:12:06;3.13;;;2.93;;
1685;SDS011;840;47.980;7.830;2023-11-21T15:14:42;2.83;;;2.60;;
1685;SDS011;840;47.980;7.830;2023-11-21T15:17:12;2.77;;;2.53;;
1685;SDS011;840;47.980;7.830;2023-11-21T15:19:49;3.93;;;2.80;;
1685;SDS011;840;47.980;7.830;2023-11-21T15:22:16;3.20;;;2.90;;
1685;SDS011;840;47.980;7.830;2023-11-21T15:24:43;3.50;;;3.20;;
1685;SDS011;840;47.980;7.830;2023-11-21T15:27:11;4.10;;;3.30;;
1685;SDS011;840;47.980;7.830;2023-11-21T15:29:38;3.23;;;2.90;;
1685;SDS011;840;47.980;7.830;2023-11-21T15:32:05;5.45;;;4.82;;
1685;SDS011;840;47.980;7.830;2023-11-21T15:34:33;3.07;;;2.77;;
1685;SDS011;840;47.980;7.830;2023-11-21T15:37:01;3.40;;;3.10;;